Freetown, Kentucky
Current Conditions -  °F | °C
As of 1:15 AM on Friday 31 Oct 2014 (Local Time) from KGLW Reporting Station
Overcast Overcast  
Wind Chill:   Ceiling: 10000
Heat Index:   Visibility: 10mi
Dew Point:   Wind: 0mph
Humidity: 96%   Direction: NA
Pressure: 30.02"   Gusts: NA
Location:  36.6549°N, 85.8315°W
Report Text: KGLW 310615Z AUTO 00000KT 10SM OVC100 07/06 A3002 RMK AO2 T00700064
Loading
Personal Weather Stations






























Interactive Weather Map
Tropical Storm Tracking
New forecast layout! Learn more

10-Day Weather Forecast

Advertisements
Track Severe Weather on mobile